Time;durP1;ratioP1;P1;durP2;ratioP2;P2;SDS_P1;SDS_P2;PMS_P1;PMS_P2;Temp;Humidity;BMP_temperature;BMP_pressure;BME280_temperature;BME280_humidity;BME280_pressure;Samples;Min_cycle;Max_cycle;Signal;HPM_P1;HPM_P2
2023/05/18 00:01:29;;;;;;;3.97;2.33;;;;;;;20.10;49.69;99701.88;4931670;29;20497;-76
2023/05/18 00:03:55;;;;;;;3.40;1.70;;;;;;;20.10;50.01;99695.75;4931760;29;20036;-76
2023/05/18 00:06:24;;;;;;;3.67;2.08;;;;;;;20.08;49.79;99698.47;4931957;29;20059;-77
2023/05/18 00:08:50;;;;;;;3.78;2.20;;;;;;;20.08;49.83;99700.25;4931774;29;20035;-76
2023/05/18 00:11:16;;;;;;;4.45;2.40;;;;;;;20.07;49.74;99696.78;4914152;29;20401;-76
2023/05/18 00:13:42;;;;;;;3.40;1.88;;;;;;;20.05;49.89;99695.97;4931734;29;20514;-76
2023/05/18 00:16:08;;;;;;;4.63;2.40;;;;;;;20.05;49.90;99698.63;4932635;29;20032;-76
2023/05/18 00:18:33;;;;;;;2.80;1.80;;;;;;;20.05;49.93;99695.97;4935021;29;20032;-76
2023/05/18 00:20:59;;;;;;;3.60;2.13;;;;;;;20.05;49.96;99693.34;4934875;29;20035;-76
2023/05/18 00:23:29;;;;;;;4.10;2.30;;;;;;;20.05;49.75;99695.13;4934717;29;20036;-75
2023/05/18 00:26:01;;;;;;;3.10;1.92;;;;;;;20.05;49.83;99687.19;4934241;29;20043;-76
2023/05/18 00:28:27;;;;;;;4.28;2.20;;;;;;;20.05;49.99;99688.03;4934847;29;20039;-76
2023/05/18 00:30:54;;;;;;;3.28;2.08;;;;;;;20.07;49.85;99686.19;4934727;29;20490;-76
2023/05/18 00:33:20;;;;;;;3.70;2.15;;;;;;;20.06;49.94;99681.81;4934713;29;20027;-75
2023/05/18 00:35:45;;;;;;;4.03;2.30;;;;;;;20.04;50.04;99681.03;4934616;29;20074;-76
2023/05/18 00:38:11;;;;;;;4.05;2.38;;;;;;;20.04;49.80;99681.03;4934827;29;20027;-76
2023/05/18 00:40:38;;;;;;;3.33;1.90;;;;;;;20.02;49.85;99677.63;4934394;29;20028;-76
2023/05/18 00:43:04;;;;;;;3.92;2.38;;;;;;;20.01;49.80;99675.91;4934809;29;20664;-76
2023/05/18 00:45:30;;;;;;;5.47;1.90;;;;;;;20.02;50.08;99676.75;4934598;29;20470;-76
2023/05/18 00:47:55;;;;;;;4.47;2.28;;;;;;;20.00;49.89;99679.47;4934527;29;20062;-76
2023/05/18 00:50:21;;;;;;;3.92;2.05;;;;;;;19.99;49.81;99672.47;4934232;29;20032;-76
2023/05/18 00:52:46;;;;;;;3.53;1.95;;;;;;;19.99;49.65;99672.47;4934250;29;20082;-76
2023/05/18 00:55:13;;;;;;;3.20;1.88;;;;;;;19.98;49.82;99676.06;4934024;28;20051;-76
2023/05/18 00:57:40;;;;;;;3.55;2.00;;;;;;;19.98;50.04;99673.41;4934309;29;20497;-76
2023/05/18 01:00:09;;;;;;;4.20;1.90;;;;;;;19.98;49.83;99670.75;4934317;29;20054;-76
2023/05/18 01:02:35;;;;;;;4.10;1.90;;;;;;;19.98;49.74;99673.41;4934242;29;20086;-76
2023/05/18 01:05:02;;;;;;;3.67;2.00;;;;;;;19.97;49.57;99674.34;4934066;29;20024;-76
2023/05/18 01:07:32;;;;;;;3.65;2.25;;;;;;;19.97;49.61;99672.56;4934264;29;20030;-75
2023/05/18 01:09:58;;;;;;;3.13;1.85;;;;;;;19.98;49.69;99678.72;4916752;29;20047;-77
2023/05/18 01:12:39;;;;;;;3.13;2.05;;;;;;;19.97;49.94;99674.34;4934099;29;20035;-77
2023/05/18 01:15:13;;;;;;;4.28;2.10;;;;;;;19.95;49.74;99671.75;4934216;28;20031;-76
2023/05/18 01:18:09;;;;;;;4.40;2.08;;;;;;;19.94;49.61;99664.75;4934124;29;20058;-76
2023/05/18 01:20:44;;;;;;;4.72;2.50;;;;;;;19.95;49.65;99661.16;4933929;29;20036;-76
2023/05/18 01:23:40;;;;;;;4.20;2.20;;;;;;;19.93;49.98;99659.53;4933943;29;20054;-76
2023/05/18 01:26:14;;;;;;;3.63;2.23;;;;;;;19.94;49.96;99656.81;4934002;29;20035;-76
2023/05/18 01:28:41;;;;;;;3.67;1.95;;;;;;;19.92;49.65;99655.16;4933958;29;20027;-76
2023/05/18 01:31:08;;;;;;;4.47;2.13;;;;;;;19.92;49.78;99655.16;4933977;29;20461;-76
2023/05/18 01:33:34;;;;;;;3.45;1.90;;;;;;;19.91;49.63;99649.00;4933802;29;20032;-76
2023/05/18 01:35:59;;;;;;;3.45;1.90;;;;;;;19.91;49.68;99658.75;4933791;29;20027;-75
2023/05/18 01:38:27;;;;;;;4.15;2.45;;;;;;;19.91;49.72;99653.47;4933471;29;20028;-76
2023/05/18 01:41:31;;;;;;;3.60;2.00;;;;;;;19.88;49.87;99651.84;4916403;28;20444;-75
2023/05/18 01:44:16;;;;;;;2.88;1.80;;;;;;;19.88;49.70;99649.19;4992303;28;20033;-76
2023/05/18 01:46:51;;;;;;;3.90;2.00;;;;;;;19.88;49.84;99648.31;4992194;28;20037;-76
2023/05/18 01:49:22;;;;;;;3.42;2.03;;;;;;;19.86;49.57;99651.91;4992069;28;20042;-76
2023/05/18 01:51:49;;;;;;;3.67;2.10;;;;;;;19.84;49.63;99643.19;4991926;28;20030;-76
2023/05/18 01:54:17;;;;;;;4.80;2.25;;;;;;;19.83;49.54;99654.75;4960785;28;20056;-76
2023/05/18 01:56:44;;;;;;;4.22;2.13;;;;;;;19.84;49.73;99647.63;4893645;29;20044;-75
2023/05/18 01:59:10;;;;;;;4.28;1.92;;;;;;;19.84;49.59;99648.50;4893741;29;20040;-76
2023/05/18 02:01:36;;;;;;;4.13;1.95;;;;;;;19.85;49.71;99649.34;4893538;28;20046;-76
2023/05/18 02:04:01;;;;;;;3.90;2.03;;;;;;;19.84;49.83;99647.63;4893545;29;20421;-76
2023/05/18 02:06:27;;;;;;;4.35;2.00;;;;;;;19.84;49.68;99648.50;4893038;29;20021;-76
2023/05/18 02:08:52;;;;;;;3.55;1.90;;;;;;;19.83;49.75;99644.16;4893446;29;20067;-76
2023/05/18 02:11:18;;;;;;;3.35;2.10;;;;;;;19.82;49.43;99639.75;4893122;29;20032;-76
2023/05/18 02:13:43;;;;;;;3.63;2.10;;;;;;;19.82;49.64;99642.41;4895294;29;20075;-76
2023/05/18 02:16:10;;;;;;;3.95;2.13;;;;;;;19.82;49.77;99638.91;4914480;29;20129;-76
2023/05/18 02:18:35;;;;;;;4.00;2.00;;;;;;;19.82;49.69;99645.06;4914325;29;20032;-75
2023/05/18 02:21:01;;;;;;;4.40;2.05;;;;;;;19.82;49.76;99650.34;4896932;29;20028;-77
2023/05/18 02:23:27;;;;;;;3.55;2.00;;;;;;;19.81;49.44;99643.34;4914261;29;20048;-76
2023/05/18 02:25:55;;;;;;;4.57;2.53;;;;;;;19.80;49.72;99646.94;4914009;29;20035;-76
2023/05/18 02:28:21;;;;;;;4.07;2.13;;;;;;;19.81;49.84;99653.94;4914117;29;20079;-76
2023/05/18 02:30:47;;;;;;;3.35;2.08;;;;;;;19.80;49.53;99652.25;4914140;29;20082;-76
2023/05/18 02:33:12;;;;;;;4.38;1.88;;;;;;;19.78;49.58;99643.53;4913963;29;20474;-75
2023/05/18 02:35:39;;;;;;;3.13;1.90;;;;;;;19.80;49.48;99644.28;4913821;29;20528;-76
2023/05/18 02:38:05;;;;;;;4.15;2.28;;;;;;;19.78;49.76;99643.53;4913594;29;20024;-77
2023/05/18 02:40:32;;;;;;;3.60;2.20;;;;;;;19.78;49.65;99632.94;4913622;29;20107;-76
2023/05/18 02:42:57;;;;;;;3.35;1.90;;;;;;;19.76;49.67;99634.78;4913971;29;20035;-76
2023/05/18 02:45:23;;;;;;;3.90;2.28;;;;;;;19.78;49.69;99640.88;4913860;29;20032;-76
2023/05/18 02:47:48;;;;;;;3.53;2.13;;;;;;;19.76;49.87;99634.78;4913837;29;20025;-77
2023/05/18 02:50:14;;;;;;;3.47;2.28;;;;;;;19.76;49.70;99640.09;4921167;29;20069;-76
2023/05/18 02:52:40;;;;;;;3.88;2.00;;;;;;;19.76;49.87;99634.78;4932480;29;20048;-76
2023/05/18 02:55:06;;;;;;;3.00;1.77;;;;;;;19.75;49.61;99637.53;4932000;28;20040;-76
2023/05/18 02:57:31;;;;;;;3.63;2.08;;;;;;;19.75;49.57;99641.03;4932491;29;20031;-76
2023/05/18 02:59:57;;;;;;;3.05;1.95;;;;;;;19.72;49.66;99635.91;4932698;29;20131;-76
2023/05/18 03:02:23;;;;;;;4.15;2.33;;;;;;;19.74;49.68;99636.69;4915500;29;20041;-77
2023/05/18 03:04:52;;;;;;;3.30;2.00;;;;;;;19.73;49.75;99638.47;4932372;29;20035;-77
2023/05/18 03:07:19;;;;;;;3.78;2.03;;;;;;;19.73;49.66;99635.81;4932438;29;20434;-76
2023/05/18 03:09:45;;;;;;;3.70;1.90;;;;;;;19.73;49.69;99634.97;4932536;29;20433;-76
2023/05/18 03:12:10;;;;;;;2.90;1.80;;;;;;;19.71;49.90;99628.91;4932420;29;20078;-76
2023/05/18 03:14:36;;;;;;;3.67;1.95;;;;;;;19.72;49.53;99633.25;4932288;29;20111;-76
2023/05/18 03:17:04;;;;;;;4.18;2.17;;;;;;;19.70;49.83;99635.13;4915116;29;20035;-76
2023/05/18 03:19:31;;;;;;;4.22;2.10;;;;;;;19.73;49.79;99624.38;4932000;29;20031;-76
2023/05/18 03:21:56;;;;;;;2.75;1.83;;;;;;;19.70;49.77;99629.81;4932328;29;20054;-76
2023/05/18 03:24:25;;;;;;;3.58;2.00;;;;;;;19.72;49.65;99633.25;4932369;29;20572;-76
2023/05/18 03:26:52;;;;;;;3.92;2.25;;;;;;;19.69;49.76;99625.47;4932322;29;20107;-75
2023/05/18 03:29:18;;;;;;;3.67;2.20;;;;;;;19.70;49.64;99624.53;4931963;29;20564;-76
2023/05/18 03:31:44;;;;;;;4.35;2.20;;;;;;;19.69;49.55;99620.19;4932256;29;20032;-76
2023/05/18 03:34:09;;;;;;;3.40;1.80;;;;;;;19.69;49.67;99618.41;4931475;29;20090;-76
2023/05/18 03:36:35;;;;;;;2.88;1.98;;;;;;;19.71;49.73;99621.81;4931973;29;20086;-76
2023/05/18 03:39:01;;;;;;;3.22;1.80;;;;;;;19.71;49.65;99623.63;4931944;29;20036;-76
2023/05/18 03:41:28;;;;;;;3.42;2.13;;;;;;;19.71;49.61;99626.25;4931848;29;20089;-76
2023/05/18 03:43:53;;;;;;;3.65;2.10;;;;;;;19.70;49.80;99620.09;4932251;29;20486;-76
2023/05/18 03:46:19;;;;;;;2.53;1.63;;;;;;;19.69;49.64;99622.81;4932140;29;20099;-76
2023/05/18 03:48:44;;;;;;;3.85;2.10;;;;;;;19.70;49.71;99621.88;4931581;29;20020;-76
2023/05/18 03:51:10;;;;;;;4.25;1.85;;;;;;;19.69;49.79;99625.47;4932865;29;20035;-76
2023/05/18 03:53:35;;;;;;;3.92;2.10;;;;;;;19.66;49.80;99617.72;4935331;29;20066;-76
2023/05/18 03:56:01;;;;;;;3.08;1.90;;;;;;;19.64;49.59;99619.56;4935241;28;20409;-76
2023/05/18 03:58:26;;;;;;;4.60;2.30;;;;;;;19.67;49.83;99624.72;4935105;29;20028;-76
2023/05/18 04:00:52;;;;;;;3.45;1.90;;;;;;;19.67;49.66;99619.41;4935202;29;20113;-76
2023/05/18 04:03:17;;;;;;;4.07;2.17;;;;;;;19.66;49.56;99623.00;4934940;29;20028;-76
2023/05/18 04:05:43;;;;;;;3.60;2.05;;;;;;;19.66;49.76;99621.19;4935118;29;20389;-76
2023/05/18 04:08:13;;;;;;;5.00;1.67;;;;;;;19.68;49.62;99626.41;4935214;29;20054;-76
2023/05/18 04:10:40;;;;;;;4.25;1.90;;;;;;;19.66;49.85;99620.34;4935201;29;20035;-76
2023/05/18 04:13:06;;;;;;;4.25;2.00;;;;;;;19.64;49.75;99633.66;4934821;29;20031;-76
2023/05/18 04:15:32;;;;;;;2.78;1.88;;;;;;;19.64;49.59;99630.16;4935163;29;20024;-77
2023/05/18 04:17:58;;;;;;;3.95;2.10;;;;;;;19.64;49.68;99636.31;4934668;29;20501;-76
2023/05/18 04:20:27;;;;;;;3.45;2.17;;;;;;;19.64;49.61;99640.75;4934941;29;20032;-76
2023/05/18 04:22:52;;;;;;;3.75;2.10;;;;;;;19.64;49.58;99638.09;4934893;29;20064;-77
2023/05/18 04:25:19;;;;;;;3.58;1.90;;;;;;;19.63;49.82;99636.38;4934865;29;20137;-76
2023/05/18 04:27:45;;;;;;;3.53;1.88;;;;;;;19.61;49.59;99631.16;4934968;29;20043;-76
2023/05/18 04:30:11;;;;;;;3.60;1.88;;;;;;;19.61;49.46;99635.63;4934748;28;20040;-75
2023/05/18 04:32:37;;;;;;;4.22;2.38;;;;;;;19.62;49.70;99638.19;4934429;29;20031;-77
2023/05/18 04:35:05;;;;;;;3.10;1.77;;;;;;;19.59;49.78;99639.22;4934598;29;20038;-76
2023/05/18 04:37:32;;;;;;;3.30;1.95;;;;;;;19.59;49.64;99641.84;4934594;29;20032;-76
2023/05/18 04:40:00;;;;;;;3.80;1.75;;;;;;;19.58;49.94;99642.75;4934606;29;20119;-76
2023/05/18 04:42:27;;;;;;;3.58;2.03;;;;;;;19.58;49.53;99642.75;4934767;29;20086;-76
2023/05/18 04:44:53;;;;;;;3.55;2.13;;;;;;;19.57;49.52;99642.88;4934474;29;20040;-76
2023/05/18 04:47:20;;;;;;;3.20;2.10;;;;;;;19.58;49.68;99642.75;4934173;29;20452;-76
2023/05/18 04:49:47;;;;;;;4.15;2.38;;;;;;;19.58;49.65;99648.06;4934376;29;20115;-76
2023/05/18 04:52:13;;;;;;;3.53;2.10;;;;;;;19.58;49.87;99650.72;4934400;29;20393;-76
2023/05/18 04:54:40;;;;;;;3.42;1.85;;;;;;;19.57;49.68;99648.16;4933846;28;20047;-76
2023/05/18 04:57:05;;;;;;;2.92;1.77;;;;;;;19.57;49.59;99656.94;4933397;29;20039;-76
2023/05/18 04:59:35;;;;;;;3.72;2.30;;;;;;;19.56;49.60;99657.00;4933361;29;20460;-76
2023/05/18 05:02:01;;;;;;;3.35;2.13;;;;;;;19.55;49.57;99658.81;4932379;29;20035;-76
2023/05/18 05:04:27;;;;;;;4.75;2.35;;;;;;;19.56;49.70;99665.81;4933360;29;20024;-77
2023/05/18 05:06:52;;;;;;;3.42;2.00;;;;;;;19.57;49.34;99664.88;4933235;29;20103;-76
2023/05/18 05:09:17;;;;;;;3.85;2.08;;;;;;;19.57;49.67;99664.88;4933027;29;20370;-76
2023/05/18 05:11:43;;;;;;;3.70;2.10;;;;;;;19.57;49.53;99667.53;4932985;29;20154;-75
2023/05/18 05:14:08;;;;;;;3.60;2.13;;;;;;;19.54;49.75;99675.66;4915851;29;20047;-75
2023/05/18 05:16:34;;;;;;;3.97;2.30;;;;;;;19.56;49.68;99670.25;4932951;29;20045;-76
2023/05/18 05:19:00;;;;;;;3.72;1.73;;;;;;;19.53;49.62;99681.88;4932937;29;20119;-76
2023/05/18 05:21:25;;;;;;;3.15;1.90;;;;;;;19.55;49.69;99681.78;4932861;29;20028;-76
2023/05/18 05:23:51;;;;;;;3.80;2.28;;;;;;;19.57;49.33;99686.06;4932872;29;20024;-76
2023/05/18 05:26:17;;;;;;;3.33;1.75;;;;;;;19.57;49.66;99683.41;4933195;29;20428;-75
2023/05/18 05:28:43;;;;;;;4.43;2.20;;;;;;;19.57;49.45;99688.72;4933127;29;20032;-76
2023/05/18 05:31:08;;;;;;;3.08;2.00;;;;;;;19.56;49.36;99681.69;4915564;29;20416;-76
2023/05/18 05:33:34;;;;;;;3.35;2.17;;;;;;;19.55;49.62;99680.00;4932841;29;20071;-76
2023/05/18 05:35:59;;;;;;;3.53;1.90;;;;;;;19.55;49.67;99682.66;4932757;29;20097;-76
2023/05/18 05:38:25;;;;;;;4.47;2.15;;;;;;;19.56;49.66;99686.13;4932645;29;20641;-76
2023/05/18 05:40:50;;;;;;;3.97;2.13;;;;;;;19.54;49.37;99686.22;4932825;29;20103;-76
2023/05/18 05:43:16;;;;;;;3.83;2.30;;;;;;;19.53;49.43;99689.81;4932756;29;20024;-76
2023/05/18 05:45:42;;;;;;;4.35;2.17;;;;;;;19.54;49.54;99694.16;4932484;29;20065;-76
2023/05/18 05:48:08;;;;;;;4.47;2.30;;;;;;;19.54;49.34;99694.16;4932532;29;20024;-76
2023/05/18 05:50:34;;;;;;;3.60;2.15;;;;;;;19.51;49.32;99694.31;4932635;28;20077;-76
2023/05/18 05:52:59;;;;;;;3.85;2.10;;;;;;;19.52;49.48;99689.88;4932638;29;20390;-76
2023/05/18 05:55:25;;;;;;;4.60;2.25;;;;;;;19.52;49.32;99690.72;4894047;28;1143519;-76
2023/05/18 05:57:50;;;;;;;3.58;2.22;;;;;;;19.52;49.36;99696.03;4933474;29;20093;-76
2023/05/18 06:00:16;;;;;;;4.18;2.15;;;;;;;19.50;49.42;99691.75;4933267;29;20024;-76
2023/05/18 06:02:41;;;;;;;3.78;2.05;;;;;;;19.50;49.35;99692.59;4933496;29;20449;-77
2023/05/18 06:05:07;;;;;;;3.42;1.83;;;;;;;19.49;49.38;99703.25;4933513;29;20027;-77
2023/05/18 06:07:33;;;;;;;4.45;1.95;;;;;;;19.49;49.47;99696.19;4933575;29;20063;-76
2023/05/18 06:09:59;;;;;;;4.20;2.22;;;;;;;19.49;49.47;99704.13;4933246;29;20531;-76
2023/05/18 06:12:24;;;;;;;4.03;2.10;;;;;;;19.50;49.54;99708.50;4933560;29;20024;-75
2023/05/18 06:14:56;;;;;;;3.50;2.05;;;;;;;19.49;49.43;99705.91;4932165;29;20075;-76
2023/05/18 06:17:22;;;;;;;3.72;2.30;;;;;;;19.48;49.17;99702.44;4933467;29;20034;-77
2023/05/18 06:19:47;;;;;;;3.25;1.75;;;;;;;19.48;49.36;99710.38;4933432;29;20394;-76
2023/05/18 06:22:13;;;;;;;3.33;1.83;;;;;;;19.47;49.55;99703.38;4935614;29;20032;-77
2023/05/18 06:24:38;;;;;;;3.35;1.92;;;;;;;19.47;49.41;99703.38;4937452;29;20027;-77
2023/05/18 06:27:04;;;;;;;3.80;1.85;;;;;;;19.47;49.35;99706.00;4937104;29;20027;-76
2023/05/18 06:29:29;;;;;;;3.45;2.08;;;;;;;19.48;49.39;99715.66;4937627;29;20031;-75
2023/05/18 06:31:56;;;;;;;4.45;2.42;;;;;;;19.47;49.26;99708.66;4937001;29;20116;-76
2023/05/18 06:34:21;;;;;;;3.75;2.10;;;;;;;19.47;49.59;99708.66;4936844;28;20379;-76
2023/05/18 06:36:47;;;;;;;4.00;2.03;;;;;;;19.47;49.41;99705.16;4936188;29;20074;-77
2023/05/18 06:39:13;;;;;;;4.25;2.47;;;;;;;19.47;49.56;99715.72;4936069;29;20090;-76
2023/05/18 06:41:38;;;;;;;3.83;2.45;;;;;;;19.46;49.47;99712.22;4935251;29;20513;-76
2023/05/18 06:44:04;;;;;;;4.15;2.30;;;;;;;19.44;49.56;99709.66;4917742;29;20032;-76
2023/05/18 06:46:29;;;;;;;3.53;1.98;;;;;;;19.48;49.55;99710.38;4935068;29;20039;-76
2023/05/18 06:48:55;;;;;;;3.17;1.80;;;;;;;19.47;49.51;99713.97;4934675;29;20035;-76
2023/05/18 06:51:21;;;;;;;3.75;1.60;;;;;;;19.45;49.68;99727.25;4934239;29;20023;-76
2023/05/18 06:53:46;;;;;;;3.35;1.98;;;;;;;19.44;49.75;99720.25;4934588;29;20389;-75
2023/05/18 06:56:12;;;;;;;2.97;1.52;;;;;;;19.45;49.55;99721.09;4934020;28;20165;-76
2023/05/18 06:58:41;;;;;;;3.90;2.10;;;;;;;19.46;49.69;99717.50;4934409;29;20044;-76
2023/05/18 07:01:06;;;;;;;3.67;2.00;;;;;;;19.45;49.61;99721.09;4934250;29;20023;-77
2023/05/18 07:03:32;;;;;;;3.83;1.85;;;;;;;19.44;49.58;99725.56;4916677;29;20031;-76
2023/05/18 07:05:58;;;;;;;4.00;1.80;;;;;;;19.44;49.50;99730.84;4933095;29;20069;-75
2023/05/18 07:08:24;;;;;;;3.08;1.77;;;;;;;19.45;49.29;99721.09;4932951;29;20035;-77
2023/05/18 07:10:50;;;;;;;3.28;1.90;;;;;;;19.43;49.60;99721.16;4933116;29;20023;-76
2023/05/18 07:13:16;;;;;;;2.55;1.60;;;;;;;19.43;49.70;99722.97;4933158;29;20078;-76
2023/05/18 07:15:41;;;;;;;3.95;1.95;;;;;;;19.44;49.50;99729.97;4933334;28;20023;-76
2023/05/18 07:18:06;;;;;;;3.03;1.98;;;;;;;19.47;49.63;99732.47;4933027;29;20024;-76
2023/05/18 07:20:32;;;;;;;4.30;1.90;;;;;;;19.40;49.46;99733.69;4933056;29;20059;-76
2023/05/18 07:22:57;;;;;;;3.03;1.80;;;;;;;19.41;49.55;99728.34;4933060;29;20034;-76
2023/05/18 07:25:23;;;;;;;3.67;2.05;;;;;;;19.43;49.28;99733.56;4932136;29;20036;-76
2023/05/18 07:27:50;;;;;;;3.47;1.88;;;;;;;19.41;49.48;99730.09;4933084;29;20028;-76
2023/05/18 07:30:16;;;;;;;3.20;1.83;;;;;;;19.41;49.35;99738.06;4932578;29;20457;-76
2023/05/18 07:32:44;;;;;;;3.13;1.92;;;;;;;19.41;49.71;99735.41;4932619;29;20056;-77
2023/05/18 07:35:09;;;;;;;3.97;2.22;;;;;;;19.41;49.60;99740.69;4932871;28;20035;-76
2023/05/18 07:37:35;;;;;;;3.60;2.03;;;;;;;19.41;49.50;99740.69;4932575;29;20537;-76
2023/05/18 07:40:01;;;;;;;2.90;1.60;;;;;;;19.42;49.54;99737.16;4932403;29;20122;-76
2023/05/18 07:42:27;;;;;;;4.35;1.85;;;;;;;19.41;49.39;99738.06;4932529;29;20030;-77
2023/05/18 07:44:52;;;;;;;2.53;1.50;;;;;;;19.39;49.66;99743.44;4932399;29;20027;-76
2023/05/18 07:47:20;;;;;;;3.10;1.70;;;;;;;19.39;49.60;99748.75;4932520;28;20039;-76
2023/05/18 07:49:46;;;;;;;3.33;2.05;;;;;;;19.40;49.59;99749.56;4932397;29;20036;-77
2023/05/18 07:52:11;;;;;;;3.15;1.85;;;;;;;19.39;49.68;99747.88;4932241;29;20492;-76
2023/05/18 07:54:37;;;;;;;3.47;1.90;;;;;;;19.38;49.50;99749.69;4931785;28;20056;-77
2023/05/18 07:57:03;;;;;;;3.65;2.00;;;;;;;19.36;49.56;99748.03;4932220;29;20044;-77
2023/05/18 07:59:28;;;;;;;2.63;1.70;;;;;;;19.37;49.76;99753.22;4932124;29;20540;-77
2023/05/18 08:01:54;;;;;;;3.15;1.85;;;;;;;19.38;49.61;99751.44;4932070;29;20031;-76
2023/05/18 08:04:20;;;;;;;3.45;2.10;;;;;;;19.37;49.44;99749.75;4932146;29;20106;-76
2023/05/18 08:06:46;;;;;;;3.60;2.05;;;;;;;19.38;49.63;99759.38;4932007;29;20107;-77
2023/05/18 08:09:11;;;;;;;3.45;1.80;;;;;;;19.39;49.75;99751.38;4914713;29;20036;-77
2023/05/18 08:11:36;;;;;;;4.15;2.00;;;;;;;19.37;49.37;99749.75;4932060;29;20090;-77
2023/05/18 08:14:02;;;;;;;3.15;1.90;;;;;;;19.36;49.45;99748.03;4931833;29;20035;-76
2023/05/18 08:16:27;;;;;;;3.22;1.80;;;;;;;19.34;49.53;99745.47;4931938;29;20058;-76
2023/05/18 08:18:53;;;;;;;3.75;1.90;;;;;;;19.31;49.67;99743.81;4931904;29;20028;-76
2023/05/18 08:21:18;;;;;;;3.50;2.00;;;;;;;19.31;49.76;99749.13;4932035;29;20385;-76
2023/05/18 08:23:45;;;;;;;3.15;1.90;;;;;;;19.32;49.64;99744.66;4931651;29;20032;-76
2023/05/18 08:26:11;;;;;;;3.00;1.60;;;;;;;19.32;49.77;99742.88;4931917;29;20123;-76
2023/05/18 08:28:37;;;;;;;4.20;1.90;;;;;;;19.34;49.89;99741.94;4931742;28;20039;-76
2023/05/18 08:31:03;;;;;;;3.47;2.05;;;;;;;19.28;49.66;99754.53;4931709;29;20031;-76
2023/05/18 08:33:28;;;;;;;3.65;2.00;;;;;;;19.28;49.67;99741.31;4931668;29;20055;-76
2023/05/18 08:35:53;;;;;;;3.95;1.90;;;;;;;19.30;49.60;99743.88;4931657;29;20028;-76
2023/05/18 08:38:19;;;;;;;3.60;2.00;;;;;;;19.30;49.45;99734.19;4934120;29;20039;-76
2023/05/18 08:41:13;;;;;;;3.47;1.90;;;;;;;19.30;49.96;99739.47;4935012;29;20047;-76
2023/05/18 08:43:44;;;;;;;5.85;2.42;;;;;;;19.30;49.62;99731.53;4920293;28;20071;-77
2023/05/18 08:46:15;;;;;;;3.97;2.35;;;;;;;19.28;49.67;99732.53;4934826;29;20440;-75
2023/05/18 08:48:45;;;;;;;5.40;2.85;;;;;;;19.27;49.79;99734.31;4934849;29;20048;-77
2023/05/18 08:51:13;;;;;;;5.10;2.92;;;;;;;19.28;49.51;99741.31;4934562;29;20058;-76
2023/05/18 08:53:39;;;;;;;5.45;2.75;;;;;;;19.28;49.78;99736.03;4934418;29;20027;-76
2023/05/18 08:56:05;;;;;;;6.00;2.92;;;;;;;19.27;50.06;99738.75;4934458;28;20098;-76
2023/05/18 08:58:35;;;;;;;6.30;3.10;;;;;;;19.30;49.72;99734.19;4934555;29;20035;-76
2023/05/18 09:01:02;;;;;;;5.53;3.53;;;;;;;19.29;50.01;99732.47;4934566;29;20088;-76
2023/05/18 09:03:29;;;;;;;7.22;3.97;;;;;;;19.30;49.80;99733.31;4934500;29;20081;-77
2023/05/18 09:05:55;;;;;;;6.65;3.78;;;;;;;19.25;49.81;99736.19;4934445;29;20035;-77
2023/05/18 09:08:22;;;;;;;6.10;3.78;;;;;;;19.28;49.87;99738.66;4934195;29;20032;-76
2023/05/18 09:10:49;;;;;;;7.65;4.28;;;;;;;19.29;49.75;99737.75;4934291;28;20062;-76
2023/05/18 09:13:19;;;;;;;6.05;3.53;;;;;;;19.28;49.86;99741.31;4934351;29;20093;-76
2023/05/18 09:15:45;;;;;;;7.05;4.45;;;;;;;19.29;49.83;99737.75;4934469;28;20043;-76
2023/05/18 09:18:10;;;;;;;6.97;4.15;;;;;;;19.29;49.63;99732.47;4934309;29;20047;-77
2023/05/18 09:20:35;;;;;;;6.50;4.10;;;;;;;19.29;49.90;99743.06;4934232;29;20036;-76
2023/05/18 09:23:01;;;;;;;8.00;4.55;;;;;;;19.29;49.84;99737.75;4933882;29;20106;-76
2023/05/18 09:25:30;;;;;;;6.88;4.15;;;;;;;19.30;50.07;99736.81;4934092;29;20130;-76
2023/05/18 09:27:56;;;;;;;8.43;4.43;;;;;;;19.28;49.87;99740.47;4934088;29;20028;-77
2023/05/18 09:30:23;;;;;;;7.65;4.65;;;;;;;19.28;49.88;99730.72;4933879;28;20055;-76
2023/05/18 09:32:51;;;;;;;7.15;4.72;;;;;;;19.28;49.95;99730.72;4934263;29;20032;-75
2023/05/18 09:35:17;;;;;;;8.18;4.43;;;;;;;19.28;49.94;99727.25;4933968;29;20035;-77
2023/05/18 09:37:43;;;;;;;8.02;4.72;;;;;;;19.28;49.86;99725.44;4933833;29;20028;-76
2023/05/18 09:40:09;;;;;;;7.95;4.68;;;;;;;19.29;50.05;99732.47;4916867;29;20536;-76
2023/05/18 09:42:37;;;;;;;6.10;4.10;;;;;;;19.28;49.90;99725.44;4934003;29;20111;-76
2023/05/18 09:45:13;;;;;;;7.10;4.40;;;;;;;19.28;49.97;99733.38;4933896;29;20070;-76
2023/05/18 09:47:39;;;;;;;7.63;4.53;;;;;;;19.29;49.87;99732.47;4933620;29;20036;-76
2023/05/18 09:50:05;;;;;;;6.75;4.47;;;;;;;19.29;49.89;99721.88;4932325;29;20089;-76
2023/05/18 09:52:38;;;;;;;6.85;4.25;;;;;;;19.31;49.86;99730.59;4933911;29;20028;-76
2023/05/18 09:55:04;;;;;;;8.20;4.63;;;;;;;19.30;49.87;99728.88;4933599;28;20063;-77
2023/05/18 09:57:30;;;;;;;8.95;5.28;;;;;;;19.31;50.03;99729.72;4933417;29;20061;-76
2023/05/18 10:00:05;;;;;;;8.00;4.60;;;;;;;19.30;49.79;99728.88;4933787;29;20525;-77
2023/05/18 10:02:31;;;;;;;6.50;3.78;;;;;;;19.31;50.16;99738.53;4933623;29;20099;-77
2023/05/18 10:04:56;;;;;;;7.05;4.47;;;;;;;19.31;50.05;99737.66;4933148;29;20107;-76
2023/05/18 10:07:21;;;;;;;7.80;4.63;;;;;;;19.31;50.05;99743.81;4933423;29;20621;-76
2023/05/18 10:10:00;;;;;;;7.28;5.03;;;;;;;19.30;50.12;99741.25;4933517;29;20099;-76
2023/05/18 10:12:25;;;;;;;7.72;4.80;;;;;;;19.30;50.05;99747.41;4933304;29;20548;-76
2023/05/18 10:14:51;;;;;;;7.80;4.75;;;;;;;19.31;49.79;99746.47;4933401;29;20036;-76
2023/05/18 10:17:16;;;;;;;7.95;4.07;;;;;;;19.32;49.89;99742.00;4933333;29;20512;-77
2023/05/18 10:19:43;;;;;;;6.50;4.35;;;;;;;19.32;49.96;99747.31;4932863;29;20034;-76
2023/05/18 10:22:09;;;;;;;7.53;4.75;;;;;;;19.31;49.97;99741.16;4933328;29;20482;-77
2023/05/18 10:24:42;;;;;;;6.43;4.53;;;;;;;19.32;50.19;99742.88;4933134;29;20032;-76
2023/05/18 10:27:08;;;;;;;7.18;4.15;;;;;;;19.35;50.09;99741.00;4916122;29;20031;-76
2023/05/18 10:29:36;;;;;;;6.53;4.40;;;;;;;19.36;50.07;99737.44;4933206;29;20024;-76
2023/05/18 10:32:05;;;;;;;7.32;4.78;;;;;;;19.34;50.15;99734.88;4932921;29;20024;-76
2023/05/18 10:34:31;;;;;;;7.70;4.55;;;;;;;19.35;50.11;99738.34;4932703;29;20031;-76
2023/05/18 10:37:00;;;;;;;7.82;4.57;;;;;;;19.35;50.13;99735.72;4932959;29;20024;-77
2023/05/18 10:39:26;;;;;;;7.32;4.43;;;;;;;19.35;50.21;99736.59;4932808;29;20098;-77
2023/05/18 10:41:54;;;;;;;7.65;4.57;;;;;;;19.36;50.09;99743.59;4932893;29;20612;-77
2023/05/18 10:44:21;;;;;;;7.25;4.30;;;;;;;19.37;50.20;99740.00;4933046;29;20070;-75
2023/05/18 10:46:47;;;;;;;6.82;4.70;;;;;;;19.38;50.20;99740.88;4933099;29;20032;-76
2023/05/18 10:49:16;;;;;;;6.75;4.32;;;;;;;19.38;50.19;99740.88;4932475;29;20050;-76
2023/05/18 10:51:43;;;;;;;6.38;4.18;;;;;;;19.38;50.18;99741.75;4932943;29;20028;-77
2023/05/18 10:54:12;;;;;;;7.05;4.30;;;;;;;19.39;50.21;99737.28;4932400;28;20069;-77
2023/05/18 10:56:43;;;;;;;7.65;4.40;;;;;;;19.38;50.21;99738.22;4915863;29;20027;-76
2023/05/18 10:59:09;;;;;;;6.30;3.80;;;;;;;19.39;50.12;99732.84;4932808;29;20027;-77
2023/05/18 11:01:37;;;;;;;7.25;4.18;;;;;;;19.40;50.15;99739.00;4932323;29;20031;-76
2023/05/18 11:04:03;;;;;;;5.85;4.38;;;;;;;19.40;49.92;99739.00;4932285;29;20047;-76
2023/05/18 11:06:30;;;;;;;6.40;4.40;;;;;;;19.38;50.35;99739.09;4932605;29;20047;-76
2023/05/18 11:08:55;;;;;;;6.95;4.28;;;;;;;19.41;50.30;99735.41;4932626;29;20028;-76
2023/05/18 11:11:27;;;;;;;6.18;4.07;;;;;;;19.41;50.04;99727.47;4932621;29;20030;-76
2023/05/18 11:13:52;;;;;;;6.55;3.70;;;;;;;19.40;50.13;99728.41;4932522;29;20031;-76
2023/05/18 11:16:19;;;;;;;6.72;3.90;;;;;;;19.41;49.96;99728.34;4932644;29;20157;-77
2023/05/18 11:18:49;;;;;;;8.10;4.20;;;;;;;19.43;50.21;99730.91;4932077;29;20031;-77
2023/05/18 11:21:20;;;;;;;6.28;3.90;;;;;;;19.42;50.05;99732.69;4932515;29;20453;-76
2023/05/18 11:24:16;;;;;;;5.90;4.15;;;;;;;19.43;50.09;99739.69;4932571;29;20051;-76
2023/05/18 11:26:44;;;;;;;6.20;3.80;;;;;;;19.45;50.31;99734.31;4932478;29;20035;-75
2023/05/18 11:29:17;;;;;;;6.20;3.80;;;;;;;19.44;50.17;99741.44;4932379;29;20055;-76
2023/05/18 11:31:44;;;;;;;5.68;3.97;;;;;;;19.46;50.02;99743.97;4932029;29;20040;-77
2023/05/18 11:34:41;;;;;;;5.70;3.72;;;;;;;19.45;50.35;99740.50;4932300;28;20119;-77